Time;durP1;ratioP1;P1;durP2;ratioP2;P2;SDS_P1;SDS_P2;PMS_P1;PMS_P2;Temp;Humidity;BMP_temperature;BMP_pressure;BME280_temperature;BME280_humidity;BME280_pressure;Samples;Min_cycle;Max_cycle;Signal;HPM_P1;HPM_P2
2022/04/04 00:00:07;;;;;;;7.15;4.93;;;4.00;99.90;;;;;;5076163;28;20119;-70
2022/04/04 00:02:33;;;;;;;5.95;5.07;;;4.10;99.90;;;;;;5076058;28;20311;-70
2022/04/04 00:04:58;;;;;;;7.95;5.38;;;4.10;99.90;;;;;;5042790;28;20116;-68
2022/04/04 00:07:25;;;;;;;6.43;4.88;;;4.10;99.90;;;;;;5076020;28;20279;-69
2022/04/04 00:09:51;;;;;;;6.68;4.80;;;4.00;99.90;;;;;;5076784;28;20040;-68
2022/04/04 00:12:17;;;;;;;7.65;5.18;;;3.80;99.90;;;;;;5076207;28;20047;-68
2022/04/04 00:14:43;;;;;;;5.97;4.75;;;3.80;99.90;;;;;;5076654;28;20024;-68
2022/04/04 00:17:10;;;;;;;8.05;5.13;;;3.70;99.90;;;;;;5059256;28;20058;-69
2022/04/04 00:19:37;;;;;;;6.63;4.82;;;3.70;99.90;;;;;;5076628;28;20045;-69
2022/04/04 00:22:03;;;;;;;6.28;4.72;;;3.70;99.90;;;;;;5076497;28;20032;-69
2022/04/04 00:24:31;;;;;;;8.98;5.13;;;3.70;99.90;;;;;;5075822;28;20033;-69
2022/04/04 00:26:56;;;;;;;7.43;5.40;;;3.60;99.90;;;;;;5076506;28;20108;-69
2022/04/04 00:29:23;;;;;;;7.47;5.15;;;3.70;99.90;;;;;;5076792;28;20107;-69
2022/04/04 00:31:48;;;;;;;7.07;4.82;;;3.60;99.90;;;;;;5076434;28;20028;-68
2022/04/04 00:34:14;;;;;;;6.65;4.90;;;3.60;99.90;;;;;;5076453;28;20036;-69
2022/04/04 00:36:41;;;;;;;5.65;4.72;;;3.50;99.90;;;;;;5075656;28;20370;-69
2022/04/04 00:39:07;;;;;;;7.28;5.30;;;3.60;99.90;;;;;;5076302;28;20353;-68
2022/04/04 00:41:33;;;;;;;7.35;4.93;;;3.50;99.90;;;;;;5076596;28;20079;-68
2022/04/04 00:43:58;;;;;;;6.90;4.82;;;3.50;99.90;;;;;;5078082;28;20400;-68
2022/04/04 00:46:24;;;;;;;6.05;4.80;;;3.40;99.90;;;;;;5079314;28;20025;-69
2022/04/04 00:48:50;;;;;;;6.35;4.97;;;3.40;99.90;;;;;;5079525;28;20323;-68
2022/04/04 00:51:16;;;;;;;8.70;5.25;;;3.40;99.90;;;;;;5079316;28;20024;-68
2022/04/04 00:53:42;;;;;;;6.88;4.65;;;3.40;99.90;;;;;;5079242;28;20028;-69
2022/04/04 00:56:09;;;;;;;6.88;4.63;;;3.40;99.90;;;;;;5079939;28;20033;-68
2022/04/04 00:58:37;;;;;;;5.38;4.30;;;3.40;99.90;;;;;;5079107;28;20089;-68
2022/04/04 01:01:04;;;;;;;8.18;5.10;;;3.40;99.90;;;;;;5080184;28;20300;-66
2022/04/04 01:03:30;;;;;;;9.70;5.35;;;3.40;99.90;;;;;;5079865;28;20387;-67
2022/04/04 01:05:58;;;;;;;6.35;4.57;;;3.30;99.90;;;;;;5079051;28;20040;-68
2022/04/04 01:08:24;;;;;;;7.38;4.65;;;3.30;99.90;;;;;;5079755;28;20310;-66
2022/04/04 01:10:50;;;;;;;7.10;4.55;;;3.30;99.90;;;;;;5079616;28;20308;-66
2022/04/04 01:13:19;;;;;;;5.35;4.60;;;3.30;99.90;;;;;;5079713;28;20116;-66
2022/04/04 01:15:45;;;;;;;8.40;5.07;;;3.30;99.90;;;;;;5080083;28;20048;-66
2022/04/04 01:18:11;;;;;;;6.40;4.82;;;3.30;99.90;;;;;;5079591;28;20063;-66
2022/04/04 01:20:37;;;;;;;9.25;4.93;;;3.20;99.90;;;;;;5079434;28;20032;-64
2022/04/04 01:23:07;;;;;;;7.40;4.50;;;3.10;99.90;;;;;;5079431;28;20048;-65
2022/04/04 01:25:37;;;;;;;9.80;5.00;;;3.10;99.90;;;;;;5078706;28;20094;-67
2022/04/04 01:28:04;;;;;;;7.53;4.43;;;3.10;99.90;;;;;;5079443;28;20059;-67
2022/04/04 01:30:32;;;;;;;7.40;4.75;;;3.00;99.90;;;;;;5078615;28;20398;-66
2022/04/04 01:32:59;;;;;;;6.78;4.82;;;3.00;99.90;;;;;;5079273;28;20043;-67
2022/04/04 01:35:25;;;;;;;6.63;4.78;;;3.10;99.90;;;;;;5079516;28;20342;-66
2022/04/04 01:37:50;;;;;;;7.10;4.45;;;3.10;99.90;;;;;;5078555;28;20028;-64
2022/04/04 01:40:17;;;;;;;8.27;4.57;;;3.00;99.90;;;;;;5078191;28;20505;-66
2022/04/04 01:42:51;;;;;;;5.50;4.40;;;3.00;99.90;;;;;;5079116;28;20077;-67
2022/04/04 01:45:17;;;;;;;5.53;4.45;;;3.00;99.90;;;;;;5078431;28;20032;-64
2022/04/04 01:47:43;;;;;;;5.78;4.35;;;3.00;99.90;;;;;;5079008;28;20328;-66
2022/04/04 01:50:09;;;;;;;5.88;4.20;;;3.00;99.90;;;;;;5045078;28;20032;-66
2022/04/04 01:52:35;;;;;;;5.35;4.72;;;3.00;99.90;;;;;;5078904;28;20389;-67
2022/04/04 01:55:01;;;;;;;6.90;4.20;;;3.00;99.90;;;;;;5078310;28;20048;-66
2022/04/04 01:57:26;;;;;;;6.32;4.38;;;3.00;99.90;;;;;;5078084;28;20037;-65
2022/04/04 01:59:52;;;;;;;6.28;4.22;;;3.00;99.90;;;;;;5078795;28;20025;-67
2022/04/04 02:02:18;;;;;;;7.03;4.65;;;3.00;99.90;;;;;;5078707;28;20048;-67
2022/04/04 02:04:44;;;;;;;5.80;4.47;;;3.00;99.90;;;;;;5078886;28;20134;-66
2022/04/04 02:07:09;;;;;;;7.13;4.70;;;3.00;99.90;;;;;;5078627;28;20033;-66
2022/04/04 02:09:35;;;;;;;5.88;4.35;;;3.00;99.90;;;;;;5079195;28;20035;-67
2022/04/04 02:12:01;;;;;;;7.88;4.63;;;3.00;99.90;;;;;;5078382;28;20024;-66
2022/04/04 02:14:27;;;;;;;5.78;4.80;;;3.00;99.90;;;;;;5079087;28;20082;-66
2022/04/04 02:16:53;;;;;;;8.57;4.45;;;3.10;99.90;;;;;;5078356;28;20041;-67
2022/04/04 02:19:18;;;;;;;6.63;4.47;;;3.10;99.90;;;;;;5077715;28;20308;-67
2022/04/04 02:21:45;;;;;;;7.93;4.60;;;3.10;99.90;;;;;;5078584;28;20338;-66
2022/04/04 02:24:11;;;;;;;5.38;4.05;;;3.10;99.90;;;;;;5078410;28;20036;-64
2022/04/04 02:26:37;;;;;;;7.53;5.18;;;3.10;99.90;;;;;;5078255;28;20032;-65
2022/04/04 02:29:03;;;;;;;6.63;4.18;;;3.10;99.90;;;;;;5077770;28;20106;-67
2022/04/04 02:31:29;;;;;;;6.10;4.47;;;3.10;99.90;;;;;;5078029;28;20040;-66
2022/04/04 02:33:56;;;;;;;6.97;4.72;;;3.10;99.90;;;;;;5078075;28;20281;-65
2022/04/04 02:36:22;;;;;;;6.30;4.82;;;3.10;99.90;;;;;;5078024;28;20071;-66
2022/04/04 02:38:48;;;;;;;6.97;4.90;;;3.10;99.90;;;;;;5078055;28;20078;-66
2022/04/04 02:41:15;;;;;;;8.18;5.25;;;3.10;99.90;;;;;;5077750;28;20052;-65
2022/04/04 02:43:41;;;;;;;7.78;5.03;;;3.20;99.90;;;;;;5077883;28;20029;-66
2022/04/04 02:46:08;;;;;;;8.95;5.40;;;3.20;99.90;;;;;;5078226;28;20411;-66
2022/04/04 02:48:35;;;;;;;6.13;4.38;;;3.20;99.90;;;;;;5077735;28;20297;-66
2022/04/04 02:51:07;;;;;;;8.10;4.97;;;3.20;99.90;;;;;;5077692;28;20066;-65
2022/04/04 02:53:34;;;;;;;;;;;3.20;99.90;;;;;;5077448;28;20029;-66
2022/04/04 02:58:44;;;;;;;5.93;4.82;;;3.20;99.90;;;;;;5077601;28;20044;-66
2022/04/04 03:01:09;;;;;;;6.47;4.78;;;3.30;99.90;;;;;;5076840;28;20033;-64
2022/04/04 03:03:35;;;;;;;6.60;5.00;;;3.30;99.90;;;;;;5077502;28;20032;-65
2022/04/04 03:06:01;;;;;;;6.18;4.97;;;3.20;99.90;;;;;;5077469;28;20075;-65
2022/04/04 03:08:27;;;;;;;8.70;5.20;;;3.20;99.90;;;;;;5059240;28;20040;-65
2022/04/04 03:10:53;;;;;;;9.07;4.93;;;3.30;99.90;;;;;;5076628;28;20407;-65
2022/04/04 03:13:18;;;;;;;7.53;5.35;;;3.30;99.90;;;;;;5077384;28;20090;-64
2022/04/04 03:15:44;;;;;;;10.65;5.40;;;3.30;99.90;;;;;;5077170;28;20095;-64
2022/04/04 03:18:10;;;;;;;9.35;5.32;;;3.20;99.90;;;;;;5077434;28;20399;-64
2022/04/04 03:20:36;;;;;;;7.82;5.00;;;3.20;99.90;;;;;;5077766;28;20154;-63
2022/04/04 03:23:02;;;;;;;8.07;5.50;;;3.20;99.90;;;;;;5059882;28;20123;-62
2022/04/04 03:25:28;;;;;;;6.75;5.35;;;3.20;99.90;;;;;;5077230;28;20028;-65
2022/04/04 03:27:54;;;;;;;6.80;5.15;;;3.30;99.90;;;;;;5076347;28;20028;-63
2022/04/04 03:30:25;;;;;;;5.45;4.65;;;3.30;99.90;;;;;;5077148;28;20047;-62
2022/04/04 03:32:54;;;;;;;8.18;5.63;;;3.30;99.90;;;;;;5077024;28;20068;-65
2022/04/04 03:35:22;;;;;;;7.53;5.53;;;3.30;99.90;;;;;;5077081;28;20371;-65
2022/04/04 03:37:50;;;;;;;7.97;5.60;;;3.30;99.90;;;;;;5076331;28;20037;-64
2022/04/04 03:40:19;;;;;;;8.98;5.88;;;3.30;99.90;;;;;;5076802;28;20078;-63
2022/04/04 03:42:46;;;;;;;7.32;5.35;;;3.30;99.90;;;;;;5076253;28;20308;-65
2022/04/04 03:45:14;;;;;;;8.80;5.78;;;3.30;99.90;;;;;;5076953;28;20025;-64
2022/04/04 03:47:41;;;;;;;9.02;6.03;;;3.30;99.90;;;;;;5077090;28;20036;-63
2022/04/04 03:50:08;;;;;;;7.93;5.93;;;3.30;99.90;;;;;;5076937;28;20025;-64
2022/04/04 03:52:34;;;;;;;9.10;6.43;;;3.30;99.90;;;;;;5076765;28;20110;-63
2022/04/04 03:55:01;;;;;;;7.40;5.88;;;3.20;99.90;;;;;;5076926;28;20024;-64
2022/04/04 03:57:27;;;;;;;11.70;6.40;;;3.20;99.90;;;;;;5077199;28;20388;-62
2022/04/04 03:59:53;;;;;;;9.50;6.07;;;3.30;99.90;;;;;;5076775;28;20194;-66
2022/04/04 04:02:19;;;;;;;8.25;6.28;;;3.30;99.90;;;;;;5075901;28;20110;-63
2022/04/04 04:04:45;;;;;;;11.77;6.50;;;3.30;99.90;;;;;;5076125;28;20041;-61
2022/04/04 04:07:15;;;;;;;8.77;6.32;;;3.30;99.90;;;;;;5076742;28;20116;-61
2022/04/04 04:09:43;;;;;;;11.20;6.75;;;3.30;99.90;;;;;;5077175;28;20025;-62
2022/04/04 04:12:10;;;;;;;9.63;6.53;;;3.30;99.90;;;;;;5076571;28;20025;-61
2022/04/04 04:14:39;;;;;;;9.68;7.32;;;3.40;99.90;;;;;;5075961;28;20021;-60
2022/04/04 04:17:06;;;;;;;10.55;6.65;;;3.40;99.90;;;;;;5075879;28;20047;-61
2022/04/04 04:22:16;;;;;;;9.27;6.25;;;3.40;99.90;;;;;;5080597;28;20036;-61
2022/04/04 04:24:43;;;;;;;8.25;6.70;;;3.40;99.90;;;;;;5081214;28;20169;-62
2022/04/04 04:27:09;;;;;;;12.00;7.20;;;3.40;99.90;;;;;;5080478;28;20044;-61
2022/04/04 04:29:35;;;;;;;10.40;7.03;;;3.40;99.90;;;;;;5080458;28;20396;-62
2022/04/04 04:32:01;;;;;;;9.27;7.00;;;3.40;99.90;;;;;;5080318;28;20036;-63
2022/04/04 04:34:27;;;;;;;9.30;6.95;;;3.40;99.90;;;;;;5080424;28;20035;-60
2022/04/04 04:36:53;;;;;;;10.13;6.72;;;3.40;99.90;;;;;;5079489;28;20031;-62
2022/04/04 04:39:18;;;;;;;9.93;7.28;;;3.40;99.90;;;;;;5080196;28;20041;-63
2022/04/04 04:41:45;;;;;;;9.50;6.90;;;3.40;99.90;;;;;;5080221;28;20101;-64
2022/04/04 04:44:11;;;;;;;11.20;7.20;;;3.50;99.90;;;;;;5080179;28;20068;-62
2022/04/04 04:46:37;;;;;;;11.50;7.57;;;3.50;99.90;;;;;;5079474;28;20028;-64
2022/04/04 04:49:04;;;;;;;8.05;6.90;;;3.50;99.90;;;;;;5080091;28;20036;-62
2022/04/04 04:51:30;;;;;;;11.60;7.32;;;3.60;99.90;;;;;;5079905;28;20054;-63
2022/04/04 04:53:56;;;;;;;8.13;6.70;;;3.60;99.90;;;;;;5079951;28;20032;-63
2022/04/04 04:56:22;;;;;;;10.70;6.60;;;3.60;99.90;;;;;;5079832;28;20055;-64
2022/04/04 04:58:48;;;;;;;9.13;7.15;;;3.60;99.90;;;;;;5079888;28;20029;-64
2022/04/04 05:01:13;;;;;;;8.30;6.80;;;3.70;99.90;;;;;;5079123;28;20040;-65
2022/04/04 05:03:39;;;;;;;12.70;7.72;;;3.70;99.90;;;;;;5079127;28;20029;-64
2022/04/04 05:06:05;;;;;;;9.65;7.30;;;3.70;99.90;;;;;;5079066;28;20036;-64
2022/04/04 05:08:31;;;;;;;13.43;8.00;;;3.80;99.90;;;;;;5079051;28;20303;-63
2022/04/04 05:10:59;;;;;;;10.43;7.75;;;3.80;99.90;;;;;;5079596;28;20032;-63
2022/04/04 05:13:26;;;;;;;10.23;7.15;;;3.90;99.90;;;;;;5079674;28;20031;-63
2022/04/04 05:15:54;;;;;;;12.05;7.32;;;3.80;99.90;;;;;;5079607;28;20040;-65
2022/04/04 05:18:21;;;;;;;11.23;7.32;;;3.80;99.90;;;;;;5079005;28;20024;-63
2022/04/04 05:20:47;;;;;;;12.27;8.23;;;3.80;99.90;;;;;;5080022;28;20123;-64
2022/04/04 05:23:13;;;;;;;11.25;7.57;;;3.90;99.90;;;;;;5079426;28;20355;-64
2022/04/04 05:25:40;;;;;;;13.95;7.93;;;3.90;99.90;;;;;;5078669;28;20040;-63
2022/04/04 05:28:07;;;;;;;11.60;7.30;;;3.90;99.90;;;;;;5079337;28;20032;-65
2022/04/04 05:30:37;;;;;;;10.98;7.80;;;3.90;99.90;;;;;;5077318;28;20032;-62
2022/04/04 05:33:03;;;;;;;8.20;6.75;;;3.90;99.90;;;;;;5079845;28;20036;-64
2022/04/04 05:35:29;;;;;;;12.10;8.13;;;3.90;99.90;;;;;;5078689;28;20036;-63
2022/04/04 05:37:55;;;;;;;10.75;7.95;;;3.90;99.90;;;;;;5078234;28;20040;-64
2022/04/04 05:40:25;;;;;;;14.32;7.38;;;4.00;99.90;;;;;;5078232;28;20040;-64
2022/04/04 05:42:52;;;;;;;8.68;6.90;;;4.00;99.90;;;;;;5079144;28;20394;-63
2022/04/04 05:45:18;;;;;;;10.45;7.35;;;4.00;99.90;;;;;;5079035;28;20025;-65
2022/04/04 05:47:45;;;;;;;9.82;7.10;;;4.00;99.90;;;;;;5079013;28;20035;-65
2022/04/04 05:50:11;;;;;;;11.85;8.07;;;4.10;99.90;;;;;;5078905;28;20154;-67
2022/04/04 05:52:37;;;;;;;9.32;7.45;;;4.30;99.90;;;;;;5078784;28;20463;-65
2022/04/04 05:55:06;;;;;;;9.30;7.05;;;4.30;99.90;;;;;;5079518;28;20103;-66
2022/04/04 05:57:36;;;;;;;10.57;7.35;;;4.30;99.90;;;;;;5077961;28;20033;-68
2022/04/04 06:00:03;;;;;;;8.70;7.18;;;4.40;99.90;;;;;;5078156;28;20094;-68
2022/04/04 06:02:40;;;;;;;10.20;7.57;;;4.50;99.90;;;;;;5078634;28;20056;-63
2022/04/04 06:05:06;;;;;;;12.55;7.53;;;4.40;99.90;;;;;;5078989;28;20029;-67
2022/04/04 06:07:33;;;;;;;9.95;7.20;;;4.40;99.90;;;;;;5078569;28;20112;-64
2022/04/04 06:09:59;;;;;;;11.73;7.20;;;4.30;99.90;;;;;;5077867;28;20028;-64
2022/04/04 06:12:25;;;;;;;10.02;7.40;;;4.40;99.90;;;;;;5077691;28;20134;-65
2022/04/04 06:14:51;;;;;;;9.13;7.20;;;4.40;99.90;;;;;;5078500;28;20028;-62
2022/04/04 06:17:18;;;;;;;10.35;6.85;;;4.50;99.90;;;;;;5078479;28;20025;-65
2022/04/04 06:19:44;;;;;;;10.98;7.03;;;4.60;99.90;;;;;;5044546;28;20127;-65
2022/04/04 06:22:09;;;;;;;12.35;7.20;;;4.60;99.90;;;;;;5060894;28;20119;-65
2022/04/04 06:24:35;;;;;;;11.50;7.07;;;4.70;99.90;;;;;;5078441;28;20032;-66
2022/04/04 06:27:02;;;;;;;10.10;7.25;;;4.80;99.90;;;;;;5078235;28;20086;-68
2022/04/04 06:29:28;;;;;;;15.95;7.75;;;4.70;99.90;;;;;;5078339;28;20032;-64
2022/04/04 06:31:56;;;;;;;8.30;7.03;;;4.70;99.90;;;;;;5077969;28;20043;-67
2022/04/04 06:34:24;;;;;;;12.50;7.30;;;4.90;99.90;;;;;;5078092;28;20412;-64
2022/04/04 06:36:51;;;;;;;12.18;7.13;;;5.00;99.90;;;;;;5077374;28;20043;-65
2022/04/04 06:39:17;;;;;;;12.15;7.20;;;5.10;99.90;;;;;;5077074;28;20064;-67
2022/04/04 06:41:47;;;;;;;9.88;7.10;;;5.10;99.90;;;;;;5077200;28;20111;-68
2022/04/04 06:44:13;;;;;;;11.70;6.75;;;5.00;99.90;;;;;;5061076;28;20043;-67
2022/04/04 06:46:39;;;;;;;10.32;7.25;;;5.00;99.90;;;;;;5077718;28;20024;-65
2022/04/04 06:49:06;;;;;;;8.73;7.05;;;5.10;99.90;;;;;;5077679;28;20037;-64
2022/04/04 06:51:33;;;;;;;10.63;6.85;;;5.00;99.90;;;;;;5077571;28;20041;-66
2022/04/04 06:54:00;;;;;;;12.27;7.22;;;5.20;99.90;;;;;;5077780;28;20052;-70
2022/04/04 06:56:26;;;;;;;11.95;6.93;;;5.30;99.90;;;;;;5077590;28;20109;-64
2022/04/04 06:58:52;;;;;;;12.73;7.40;;;5.30;99.90;;;;;;5077586;28;20039;-65
2022/04/04 07:01:19;;;;;;;11.70;7.00;;;5.50;99.90;;;;;;5060149;28;20028;-69
2022/04/04 07:03:45;;;;;;;13.77;7.75;;;5.60;99.90;;;;;;5077509;28;20024;-69
2022/04/04 07:06:11;;;;;;;11.13;6.82;;;5.50;99.90;;;;;;5060388;28;20032;-68
2022/04/04 07:08:36;;;;;;;11.32;7.07;;;5.60;99.90;;;;;;5077514;28;20086;-65
2022/04/04 07:11:03;;;;;;;11.25;7.55;;;5.70;99.90;;;;;;5076658;28;20116;-66
2022/04/04 07:13:31;;;;;;;10.27;7.22;;;5.70;99.90;;;;;;5076730;28;20120;-67
2022/04/04 07:15:58;;;;;;;10.68;6.88;;;5.70;99.90;;;;;;5077344;28;20024;-67
2022/04/04 07:18:24;;;;;;;8.95;6.63;;;5.70;99.90;;;;;;5076595;28;20285;-65
2022/04/04 07:20:50;;;;;;;10.85;6.97;;;5.90;99.90;;;;;;5077239;28;20090;-65
2022/04/04 07:23:18;;;;;;;11.35;6.43;;;6.00;99.90;;;;;;5077133;28;20056;-63
2022/04/04 07:25:44;;;;;;;9.98;6.85;;;5.90;99.90;;;;;;5076472;28;20052;-66
2022/04/04 07:28:10;;;;;;;11.95;6.43;;;6.10;99.90;;;;;;5077128;28;20094;-68
2022/04/04 07:30:36;;;;;;;12.23;7.28;;;6.10;99.90;;;;;;5059578;28;20115;-66
2022/04/04 07:33:04;;;;;;;12.25;7.97;;;6.20;99.90;;;;;;5076338;28;20464;-69
2022/04/04 07:35:30;;;;;;;10.68;6.97;;;6.40;99.90;;;;;;5060020;28;20051;-67
2022/04/04 07:37:56;;;;;;;12.43;6.75;;;6.50;99.90;;;;;;5077031;28;20396;-66
2022/04/04 07:40:21;;;;;;;10.40;6.50;;;6.60;99.90;;;;;;5076052;28;20089;-67
2022/04/04 07:42:48;;;;;;;11.80;6.40;;;6.80;99.90;;;;;;5076908;28;20028;-60
2022/04/04 07:45:15;;;;;;;9.98;6.63;;;7.00;99.90;;;;;;5077316;28;20032;-66
2022/04/04 07:47:43;;;;;;;11.40;7.13;;;7.00;99.90;;;;;;5059499;28;20036;-66
2022/04/04 07:50:12;;;;;;;14.02;6.90;;;7.00;99.90;;;;;;5076258;28;20025;-64
2022/04/04 07:52:38;;;;;;;9.57;6.75;;;7.10;99.90;;;;;;5076523;28;20089;-66
2022/04/04 07:55:05;;;;;;;11.05;6.65;;;7.20;99.90;;;;;;5075926;28;20111;-65
2022/04/04 07:57:31;;;;;;;11.95;6.78;;;7.10;99.90;;;;;;5059916;28;20440;-64
2022/04/04 07:59:57;;;;;;;13.90;6.85;;;7.00;99.90;;;;;;5026420;28;20107;-63
2022/04/04 08:02:23;;;;;;;9.30;6.90;;;7.10;99.90;;;;;;5076031;28;20111;-62
2022/04/04 08:04:49;;;;;;;11.63;6.95;;;7.20;99.90;;;;;;5076846;28;20060;-67
2022/04/04 08:07:18;;;;;;;12.38;6.90;;;7.10;99.90;;;;;;5076782;28;20404;-66
2022/04/04 08:09:47;;;;;;;15.27;6.77;;;7.00;99.90;;;;;;5076129;28;20101;-66
2022/04/04 08:12:13;;;;;;;10.10;6.65;;;7.10;99.90;;;;;;5076851;28;20313;-62
2022/04/04 08:14:39;;;;;;;12.55;7.22;;;7.10;99.90;;;;;;5076732;28;20037;-64
2022/04/04 08:17:06;;;;;;;11.98;7.47;;;7.20;99.90;;;;;;5076729;28;20028;-67
2022/04/04 08:19:32;;;;;;;14.63;7.07;;;7.30;99.90;;;;;;5042602;28;20354;-64
2022/04/04 08:21:59;;;;;;;15.77;7.15;;;7.30;99.90;;;;;;5076525;28;20033;-64
2022/04/04 08:24:24;;;;;;;10.68;6.93;;;7.20;99.90;;;;;;5075939;28;20120;-65
2022/04/04 08:26:50;;;;;;;8.85;6.85;;;7.30;99.90;;;;;;5026294;28;20357;-62
2022/04/04 08:29:16;;;;;;;10.63;6.32;;;7.40;99.90;;;;;;5076367;28;20404;-61
2022/04/04 08:31:42;;;;;;;8.43;6.38;;;7.50;99.90;;;;;;5058910;28;20042;-63
2022/04/04 08:34:09;;;;;;;8.50;6.28;;;7.50;99.90;;;;;;5075940;28;20127;-67
2022/04/04 08:36:35;;;;;;;9.38;6.57;;;7.40;99.90;;;;;;5042561;28;20028;-62
2022/04/04 08:39:02;;;;;;;7.72;6.22;;;7.60;99.90;;;;;;5076421;28;20024;-65
2022/04/04 08:41:32;;;;;;;10.50;6.38;;;7.70;99.90;;;;;;5075893;28;20044;-64
2022/04/04 08:44:01;;;;;;;12.43;7.03;;;7.90;99.90;;;;;;5076478;28;20028;-64
2022/04/04 08:46:33;;;;;;;11.10;6.50;;;7.90;99.90;;;;;;5076349;28;20032;-64
2022/04/04 08:49:00;;;;;;;9.53;6.47;;;7.70;99.90;;;;;;5076497;28;20024;-67
2022/04/04 08:51:28;;;;;;;10.50;6.60;;;7.60;99.90;;;;;;5059460;28;20418;-65
2022/04/04 08:53:54;;;;;;;7.93;6.32;;;7.80;99.90;;;;;;5076354;28;20357;-63
2022/04/04 08:56:24;;;;;;;9.63;6.18;;;8.10;99.90;;;;;;5059362;28;20037;-65
2022/04/04 08:58:52;;;;;;;8.45;6.40;;;8.20;99.90;;;;;;5075503;28;20036;-60
2022/04/04 09:01:22;;;;;;;6.90;5.60;;;8.20;99.90;;;;;;5075624;28;20036;-66
2022/04/04 09:03:55;;;;;;;9.50;6.15;;;8.10;99.90;;;;;;5058988;28;20033;-63
2022/04/04 09:06:20;;;;;;;7.65;5.65;;;7.90;99.90;;;;;;5078366;28;20025;-64
2022/04/04 09:08:51;;;;;;;9.02;5.78;;;8.10;99.90;;;;;;5062499;28;20099;-67
2022/04/04 09:11:17;;;;;;;14.52;6.40;;;8.00;99.90;;;;;;5078887;28;20036;-67
2022/04/04 09:13:43;;;;;;;9.10;6.32;;;8.10;99.90;;;;;;5079124;28;20024;-63
2022/04/04 09:16:10;;;;;;;11.73;6.22;;;8.00;99.90;;;;;;5079557;28;20024;-65
2022/04/04 09:18:42;;;;;;;9.40;6.57;;;7.90;99.90;;;;;;5079107;28;20082;-62
2022/04/04 09:21:10;;;;;;;9.37;6.23;;;7.80;99.90;;;;;;5080046;28;20336;-63
2022/04/04 09:23:57;;;;;;;10.07;6.68;;;7.70;99.90;;;;;;5079504;28;20089;-62
2022/04/04 09:26:35;;;;;;;12.13;6.75;;;7.70;99.90;;;;;;5078658;28;20053;-62
2022/04/04 09:29:05;;;;;;;14.45;6.70;;;7.70;99.90;;;;;;5079471;28;20300;-61
2022/04/04 09:31:31;;;;;;;11.48;7.30;;;7.70;99.90;;;;;;5079269;28;20147;-64
2022/04/04 09:34:05;;;;;;;10.20;7.03;;;7.70;99.90;;;;;;5079297;28;20044;-65
2022/04/04 09:36:31;;;;;;;8.77;6.22;;;7.60;99.90;;;;;;5079199;28;20388;-60
2022/04/04 09:39:08;;;;;;;11.15;6.68;;;7.50;99.90;;;;;;5079007;28;20324;-66
2022/04/04 09:41:34;;;;;;;9.18;7.00;;;7.50;99.90;;;;;;5078518;28;20063;-65
2022/04/04 09:44:02;;;;;;;9.13;7.07;;;7.30;99.90;;;;;;5079167;28;20032;-65
2022/04/04 09:46:34;;;;;;;12.20;7.07;;;7.30;99.90;;;;;;5078466;28;20032;-63
2022/04/04 09:49:10;;;;;;;10.38;6.68;;;7.20;99.90;;;;;;5079033;28;20028;-63
2022/04/04 09:51:41;;;;;;;11.38;7.70;;;7.00;99.90;;;;;;5078919;28;20273;-65
2022/04/04 09:54:18;;;;;;;11.68;8.40;;;7.00;99.90;;;;;;5078166;28;20282;-62
2022/04/04 09:56:46;;;;;;;13.93;8.30;;;7.10;99.90;;;;;;5079144;28;20273;-63
2022/04/04 09:59:17;;;;;;;12.38;7.93;;;7.00;99.90;;;;;;5078760;28;20396;-62
2022/04/04 10:01:44;;;;;;;9.88;7.40;;;7.00;99.90;;;;;;5078116;28;20033;-61
2022/04/04 10:04:12;;;;;;;12.73;8.30;;;7.00;99.90;;;;;;5078276;28;20045;-63
2022/04/04 10:06:39;;;;;;;12.82;8.68;;;7.00;99.90;;;;;;5077950;28;20032;-62
2022/04/04 10:09:06;;;;;;;10.73;8.43;;;6.90;99.90;;;;;;5077856;28;20032;-64
2022/04/04 10:11:35;;;;;;;13.32;9.10;;;6.90;99.90;;;;;;5077740;28;20043;-61
2022/04/04 10:14:02;;;;;;;12.43;8.35;;;7.00;99.90;;;;;;5078524;28;20024;-63
2022/04/04 10:16:28;;;;;;;12.07;8.23;;;6.80;99.90;;;;;;5077491;28;20025;-64
2022/04/04 10:18:55;;;;;;;12.68;8.55;;;6.70;99.90;;;;;;5077555;28;20031;-66
2022/04/04 10:21:21;;;;;;;10.13;7.93;;;6.70;99.90;;;;;;5078390;28;20032;-63
2022/04/04 10:23:56;;;;;;;13.05;8.30;;;6.60;99.90;;;;;;5078351;28;20051;-67
2022/04/04 10:26:28;;;;;;;9.95;8.43;;;6.50;99.90;;;;;;5078340;28;20051;-68
2022/04/04 10:29:10;;;;;;;13.25;8.95;;;6.40;99.90;;;;;;5077558;28;20037;-66
2022/04/04 10:32:14;;;;;;;11.70;9.05;;;6.40;99.90;;;;;;5078126;28;20042;-66
2022/04/04 10:34:44;;;;;;;12.70;8.60;;;6.40;99.90;;;;;;5078074;28;20123;-65
2022/04/04 10:37:14;;;;;;;11.85;8.77;;;6.50;99.90;;;;;;5077483;28;20039;-65
2022/04/04 10:39:42;;;;;;;11.57;8.63;;;6.40;99.90;;;;;;5077873;28;20293;-66
2022/04/04 10:42:41;;;;;;;16.67;9.57;;;6.30;99.90;;;;;;5077269;28;20158;-61
2022/04/04 10:45:12;;;;;;;12.90;9.30;;;6.30;99.90;;;;;;5077736;28;20063;-68
2022/04/04 10:47:42;;;;;;;10.77;8.60;;;6.30;99.90;;;;;;5060539;28;20090;-68
2022/04/04 10:50:28;;;;;;;13.02;9.02;;;6.20;99.90;;;;;;5077115;28;20028;-68
2022/04/04 10:52:58;;;;;;;11.65;9.85;;;6.10;99.90;;;;;;5077763;28;20185;-68
2022/04/04 10:55:27;;;;;;;12.98;8.93;;;6.10;99.90;;;;;;5077758;28;20454;-67
2022/04/04 10:58:09;;;;;;;13.25;9.77;;;6.10;99.90;;;;;;5076965;28;20043;-67
2022/04/04 11:00:53;;;;;;;14.75;9.68;;;6.10;99.90;;;;;;5077653;28;20033;-69
2022/04/04 11:03:27;;;;;;;10.75;9.07;;;6.20;99.90;;;;;;5077598;28;20040;-70
2022/04/04 11:09:12;;;;;;;14.18;9.55;;;6.20;99.90;;;;;;5076775;28;20028;-70
2022/04/04 11:11:47;;;;;;;13.00;8.95;;;6.20;99.90;;;;;;5077419;28;20047;-70
2022/04/04 11:14:38;;;;;;;14.07;9.75;;;6.20;99.90;;;;;;5077642;28;20024;-68
2022/04/04 11:20:10;;;;;;;14.82;10.60;;;6.20;99.90;;;;;;5077326;28;20292;-65
2022/04/04 11:22:41;;;;;;;15.15;10.23;;;6.20;99.90;;;;;;5077527;28;20064;-68
2022/04/04 11:25:16;;;;;;;13.98;10.13;;;6.20;99.90;;;;;;5077557;28;20292;-63
2022/04/04 11:27:48;;;;;;;15.10;10.55;;;6.20;99.90;;;;;;5076687;28;20036;-66
2022/04/04 11:30:25;;;;;;;19.20;11.23;;;6.30;99.90;;;;;;5077068;28;20105;-65
2022/04/04 11:32:54;;;;;;;13.75;10.43;;;6.30;99.90;;;;;;5077096;28;20051;-63
2022/04/04 11:35:30;;;;;;;15.13;10.10;;;6.20;99.90;;;;;;5076478;28;20036;-62
2022/04/04 11:38:07;;;;;;;13.98;9.98;;;6.10;99.90;;;;;;5076990;28;20044;-61
2022/04/04 11:40:37;;;;;;;15.57;10.90;;;6.10;99.90;;;;;;5077762;28;20052;-62
2022/04/04 11:43:08;;;;;;;15.80;10.35;;;6.10;99.90;;;;;;5077300;28;20354;-59
2022/04/04 11:45:39;;;;;;;13.57;10.30;;;6.20;99.90;;;;;;5076974;28;20379;-61
2022/04/04 11:48:07;;;;;;;14.30;10.63;;;6.20;99.90;;;;;;5076532;28;20402;-61
2022/04/04 11:50:35;;;;;;;14.80;11.75;;;6.20;99.90;;;;;;5076160;28;20396;-61
2022/04/04 11:53:10;;;;;;;14.10;11.18;;;6.30;99.90;;;;;;5076099;28;20048;-61
2022/04/04 11:55:39;;;;;;;14.23;11.48;;;6.40;99.90;;;;;;5076228;28;20384;-61
2022/04/04 11:58:12;;;;;;;15.73;11.38;;;6.30;99.90;;;;;;5076788;28;20063;-62
2022/04/04 12:00:42;;;;;;;14.93;11.23;;;6.30;99.90;;;;;;5077261;28;20078;-62
2022/04/04 12:03:12;;;;;;;15.95;11.30;;;6.30;99.90;;;;;;5076716;28;20108;-61
2022/04/04 12:05:40;;;;;;;14.45;10.80;;;6.30;99.90;;;;;;5077254;28;20036;-62
2022/04/04 12:08:06;;;;;;;15.38;11.45;;;6.30;99.90;;;;;;5076839;28;20031;-61
2022/04/04 12:10:37;;;;;;;13.07;11.68;;;6.20;99.90;;;;;;5076827;28;20048;-65
2022/04/04 12:13:21;;;;;;;15.82;11.40;;;6.30;99.90;;;;;;5076224;28;20277;-66
2022/04/04 12:15:54;;;;;;;13.77;11.35;;;6.30;99.90;;;;;;5077044;28;20020;-66
2022/04/04 12:18:28;;;;;;;14.80;11.90;;;6.30;99.90;;;;;;5076378;28;20059;-64
2022/04/04 12:21:00;;;;;;;14.90;11.55;;;6.40;99.90;;;;;;5075893;28;20043;-65
2022/04/04 12:26:15;;;;;;;12.68;10.45;;;6.30;99.90;;;;;;5076595;28;20103;-63
2022/04/04 12:28:52;;;;;;;15.50;12.23;;;6.40;99.90;;;;;;5076538;28;20020;-66
2022/04/04 12:31:26;;;;;;;18.40;12.20;;;6.40;99.90;;;;;;5076417;28;20300;-65
2022/04/04 12:33:59;;;;;;;15.65;11.82;;;6.40;99.90;;;;;;5076475;28;20042;-64
2022/04/04 12:36:38;;;;;;;15.65;11.55;;;6.40;99.90;;;;;;5075994;28;20494;-63
2022/04/04 12:39:08;;;;;;;14.35;11.60;;;6.50;99.90;;;;;;5076644;28;20025;-63
2022/04/04 12:41:51;;;;;;;14.23;12.38;;;6.50;99.90;;;;;;5080367;28;20135;-59
2022/04/04 12:44:25;;;;;;;14.45;11.32;;;6.50;99.90;;;;;;5080494;28;20040;-60
2022/04/04 12:47:10;;;;;;;18.58;11.63;;;6.50;99.90;;;;;;5080449;28;20040;-64
2022/04/04 12:49:40;;;;;;;17.48;12.20;;;6.50;99.90;;;;;;5080174;28;20029;-64
2022/04/04 12:52:08;;;;;;;15.07;10.40;;;6.60;99.90;;;;;;5080025;28;20346;-64
2022/04/04 12:54:37;;;;;;;15.48;11.77;;;6.60;99.90;;;;;;5080079;28;20096;-64
2022/04/04 12:57:04;;;;;;;15.52;11.70;;;6.60;99.90;;;;;;5080036;28;20031;-63
2022/04/04 12:59:45;;;;;;;14.68;11.93;;;6.60;99.90;;;;;;5080050;28;20040;-64
2022/04/04 13:02:11;;;;;;;13.32;11.07;;;6.70;99.90;;;;;;5080180;28;20377;-62
2022/04/04 13:04:39;;;;;;;17.92;11.40;;;6.60;99.90;;;;;;5079131;28;20040;-62
2022/04/04 13:07:16;;;;;;;13.60;11.20;;;6.60;99.90;;;;;;5079729;28;20033;-62
2022/04/04 13:09:52;;;;;;;14.07;11.05;;;6.70;99.90;;;;;;5080060;28;20028;-61